createdAt,value
2019-03-20T00:00:39.869Z,2.22
2019-03-20T00:01:12.968Z,2.21
2019-03-20T00:01:44.196Z,2.22
2019-03-20T00:02:15.469Z,2.23
2019-03-20T00:02:46.634Z,2.20
2019-03-20T00:03:18.932Z,2.20
2019-03-20T00:03:50.108Z,2.21
2019-03-20T00:04:21.332Z,2.20
2019-03-20T00:04:52.504Z,2.19
2019-03-20T00:05:23.753Z,2.18
2019-03-20T00:05:55.351Z,2.18
2019-03-20T00:06:26.702Z,2.19
2019-03-20T00:06:58.344Z,2.19
2019-03-20T00:07:29.575Z,2.19
2019-03-20T00:08:00.784Z,2.19
2019-03-20T00:08:32.118Z,2.17
2019-03-20T00:09:05.349Z,2.21
2019-03-20T00:09:36.844Z,2.21
2019-03-20T00:10:09.935Z,2.12
2019-03-20T00:10:41.359Z,2.12
2019-03-20T00:11:12.585Z,2.23
2019-03-20T00:11:43.807Z,2.24
2019-03-20T00:12:15.069Z,2.26
2019-03-20T00:12:46.282Z,2.27
2019-03-20T00:13:17.509Z,2.28
2019-03-20T00:13:48.769Z,2.15
2019-03-20T00:14:20.007Z,2.15
2019-03-20T00:14:51.231Z,2.27
2019-03-20T00:15:22.487Z,2.27
2019-03-20T00:15:54.771Z,2.28
2019-03-20T00:16:25.936Z,2.27
2019-03-20T00:16:58.311Z,2.28
2019-03-20T00:17:29.465Z,2.27
2019-03-20T00:18:00.689Z,2.25
2019-03-20T00:18:31.837Z,2.24
2019-03-20T00:19:03.167Z,2.20
2019-03-20T00:19:34.304Z,2.19
2019-03-20T00:20:09.014Z,2.17
2019-03-20T00:20:40.196Z,2.16
2019-03-20T00:21:11.486Z,2.16
2019-03-20T00:21:42.634Z,2.16
2019-03-20T00:22:13.836Z,2.16
2019-03-20T00:22:44.984Z,2.13
2019-03-20T00:23:16.376Z,2.18
2019-03-20T00:23:47.564Z,2.19
2019-03-20T00:24:18.746Z,2.19
2019-03-20T00:24:49.960Z,2.20
2019-03-20T00:25:21.240Z,2.21
2019-03-20T00:25:52.413Z,2.22
2019-03-20T00:26:23.716Z,2.22
2019-03-20T00:26:54.934Z,2.18
2019-03-20T00:27:26.184Z,2.18
2019-03-20T00:27:57.356Z,2.18
2019-03-20T00:28:28.688Z,2.17
2019-03-20T00:28:59.899Z,2.12
2019-03-20T00:29:31.108Z,2.08
2019-03-20T00:30:06.575Z,2.07
2019-03-20T00:30:37.750Z,2.05
2019-03-20T00:31:08.928Z,2.03
2019-03-20T00:31:40.097Z,2.04
2019-03-20T00:32:11.266Z,2.05
2019-03-20T00:32:42.476Z,2.06
2019-03-20T00:33:13.639Z,2.06
2019-03-20T00:33:44.815Z,2.02
2019-03-20T00:34:16.004Z,2.01
2019-03-20T00:34:47.187Z,2.01
2019-03-20T00:35:18.365Z,2.00
2019-03-20T00:35:49.639Z,1.99
2019-03-20T00:36:20.807Z,1.98
2019-03-20T00:36:52.149Z,1.98
2019-03-20T00:37:23.315Z,1.99
2019-03-20T00:37:54.516Z,1.99
2019-03-20T00:38:25.779Z,1.99
2019-03-20T00:38:56.963Z,1.99
2019-03-20T00:39:28.298Z,2.00
2019-03-20T00:39:59.499Z,2.00
2019-03-20T00:40:30.676Z,2.00
2019-03-20T00:41:01.853Z,2.01
2019-03-20T00:41:33.035Z,2.01
2019-03-20T00:42:04.244Z,2.02
2019-03-20T00:42:35.627Z,2.03
2019-03-20T00:43:06.910Z,2.05
2019-03-20T00:43:38.091Z,2.05
2019-03-20T00:44:09.276Z,2.05
2019-03-20T00:44:40.456Z,2.06
2019-03-20T00:45:14.749Z,2.06
2019-03-20T00:45:45.922Z,2.08
2019-03-20T00:46:17.129Z,2.09
2019-03-20T00:46:49.286Z,2.09
2019-03-20T00:47:20.494Z,2.08
2019-03-20T00:47:51.661Z,2.09
2019-03-20T00:48:23.870Z,2.07
2019-03-20T00:48:55.337Z,2.05
2019-03-20T00:49:26.543Z,2.05
2019-03-20T00:49:58.194Z,2.06
2019-03-20T00:50:29.535Z,2.06
2019-03-20T00:51:00.693Z,2.06
2019-03-20T00:51:31.876Z,2.04
2019-03-20T00:52:03.040Z,2.04
2019-03-20T00:52:34.343Z,2.04
2019-03-20T00:53:05.490Z,2.04
2019-03-20T00:53:36.711Z,2.02
2019-03-20T00:54:07.965Z,2.02
2019-03-20T00:54:39.205Z,2.02
2019-03-20T00:55:12.204Z,2.00
2019-03-20T00:55:43.371Z,2.00
2019-03-20T00:56:14.619Z,2.01
2019-03-20T00:56:46.879Z,2.03
2019-03-20T00:57:19.199Z,2.04
2019-03-20T00:57:50.443Z,2.05
2019-03-20T00:58:21.668Z,2.05
2019-03-20T00:58:52.897Z,2.06
2019-03-20T00:59:24.108Z,2.05
2019-03-20T00:59:55.588Z,2.04
2019-03-20T01:00:26.799Z,2.03
2019-03-20T01:00:58.042Z,1.90
2019-03-20T01:01:29.260Z,2.00
2019-03-20T01:02:00.421Z,2.00
2019-03-20T01:02:31.634Z,1.99
2019-03-20T01:03:03.101Z,1.93
2019-03-20T01:03:34.312Z,1.93
2019-03-20T01:04:05.467Z,1.92
2019-03-20T01:04:36.681Z,1.93
2019-03-20T01:05:12.844Z,1.82
2019-03-20T01:05:41.947Z,1.82
2019-03-20T01:06:13.207Z,1.92
2019-03-20T01:06:44.407Z,1.92
2019-03-20T01:07:15.565Z,1.90
2019-03-20T01:07:46.763Z,1.90
2019-03-20T01:08:17.921Z,1.88
2019-03-20T01:08:49.229Z,1.89
2019-03-20T01:09:20.390Z,1.90
2019-03-20T01:09:51.593Z,1.91
2019-03-20T01:10:23.275Z,1.89
2019-03-20T01:10:54.761Z,1.80
2019-03-20T01:11:25.916Z,1.86
2019-03-20T01:11:57.133Z,1.83
2019-03-20T01:12:28.276Z,1.80
2019-03-20T01:12:59.486Z,1.77
2019-03-20T01:13:30.634Z,1.73
2019-03-20T01:14:01.856Z,1.72
2019-03-20T01:14:33.016Z,1.71
2019-03-20T01:15:07.448Z,1.72
2019-03-20T01:15:38.638Z,1.74
2019-03-20T01:16:09.871Z,1.72
2019-03-20T01:16:41.100Z,1.71
2019-03-20T01:17:12.338Z,1.63
2019-03-20T01:17:44.173Z,1.68
2019-03-20T01:18:15.390Z,1.68
2019-03-20T01:18:46.612Z,1.66
2019-03-20T01:19:17.855Z,1.64
2019-03-20T01:19:49.062Z,1.64
2019-03-20T01:20:21.801Z,1.62
2019-03-20T01:20:53.012Z,1.61
2019-03-20T01:21:24.418Z,1.61
2019-03-20T01:21:55.653Z,1.59
2019-03-20T01:22:26.803Z,1.59
2019-03-20T01:22:58.223Z,1.58
2019-03-20T01:23:29.375Z,1.60
2019-03-20T01:24:00.663Z,1.62
2019-03-20T01:24:31.839Z,1.63
2019-03-20T01:25:06.513Z,1.64
2019-03-20T01:25:37.703Z,1.64
2019-03-20T01:26:08.907Z,1.64
2019-03-20T01:26:40.083Z,1.63
2019-03-20T01:27:11.257Z,1.62
2019-03-20T01:27:42.541Z,1.62
2019-03-20T01:28:13.704Z,1.61
2019-03-20T01:28:44.877Z,1.62
2019-03-20T01:29:16.058Z,1.61
2019-03-20T01:29:47.235Z,1.57
2019-03-20T01:30:39.129Z,1.58
2019-03-20T01:31:10.300Z,1.56
2019-03-20T01:31:41.470Z,1.54
2019-03-20T01:32:12.648Z,1.53
2019-03-20T01:32:43.828Z,1.53
2019-03-20T01:33:15.009Z,1.51
2019-03-20T01:33:46.194Z,1.50
2019-03-20T01:34:17.372Z,1.49
2019-03-20T01:34:48.541Z,1.49
2019-03-20T01:35:23.765Z,1.49
2019-03-20T01:35:52.830Z,1.49
2019-03-20T01:36:24.093Z,1.51
2019-03-20T01:36:55.542Z,1.51
2019-03-20T01:37:26.693Z,1.53
2019-03-20T01:37:57.926Z,1.50
2019-03-20T01:38:29.069Z,1.47
2019-03-20T01:39:00.279Z,1.45
2019-03-20T01:39:31.475Z,1.45
2019-03-20T01:40:05.893Z,1.50
2019-03-20T01:40:37.052Z,1.50
2019-03-20T01:41:08.245Z,1.52
2019-03-20T01:41:39.494Z,1.54
2019-03-20T01:42:10.693Z,1.53
2019-03-20T01:42:41.875Z,1.52
2019-03-20T01:43:13.076Z,1.52
2019-03-20T01:43:44.259Z,1.51
2019-03-20T01:44:15.459Z,1.50
2019-03-20T01:44:46.606Z,1.49
2019-03-20T01:45:17.820Z,1.47
2019-03-20T01:45:49.006Z,1.46
2019-03-20T01:46:20.196Z,1.44
2019-03-20T01:46:51.363Z,1.44
2019-03-20T01:47:22.560Z,1.44
2019-03-20T01:47:53.728Z,1.45
2019-03-20T01:48:24.936Z,1.44
2019-03-20T01:48:56.082Z,1.44
2019-03-20T01:49:27.281Z,1.47
2019-03-20T01:49:58.478Z,1.47
2019-03-20T01:50:29.689Z,1.47
2019-03-20T01:51:15.437Z,1.49
2019-03-20T01:51:46.622Z,1.48
2019-03-20T01:52:17.820Z,1.48
2019-03-20T01:52:48.995Z,1.49
2019-03-20T01:53:20.190Z,1.50
2019-03-20T01:53:51.368Z,1.53
2019-03-20T01:54:22.520Z,1.51
2019-03-20T01:54:53.715Z,1.51
2019-03-20T01:55:24.891Z,1.52
2019-03-20T01:55:56.064Z,1.52
2019-03-20T01:56:27.271Z,1.52
2019-03-20T01:56:58.437Z,1.49
2019-03-20T01:57:29.641Z,1.52
2019-03-20T01:58:00.802Z,1.50
2019-03-20T01:58:32.043Z,1.50
2019-03-20T01:59:03.279Z,1.48
2019-03-20T01:59:34.471Z,1.47
2019-03-20T02:00:07.713Z,1.46
2019-03-20T02:00:39.123Z,1.46
2019-03-20T02:01:10.307Z,1.44
2019-03-20T02:01:41.488Z,1.44
2019-03-20T02:02:12.691Z,1.43
2019-03-20T02:02:43.859Z,1.42
2019-03-20T02:03:15.036Z,1.42
2019-03-20T02:03:46.219Z,1.41
2019-03-20T02:04:17.396Z,1.40
2019-03-20T02:04:48.598Z,1.40
2019-03-20T02:05:19.774Z,1.39
2019-03-20T02:05:50.963Z,1.38
2019-03-20T02:06:22.164Z,1.38
2019-03-20T02:06:53.345Z,1.37
2019-03-20T02:07:24.762Z,1.36
2019-03-20T02:07:56.027Z,1.36
2019-03-20T02:08:27.212Z,1.37
2019-03-20T02:08:58.442Z,1.33
2019-03-20T02:09:29.620Z,1.37
2019-03-20T02:10:00.789Z,1.36
2019-03-20T02:10:31.982Z,1.35
2019-03-20T02:11:03.263Z,1.35
2019-03-20T02:11:34.543Z,1.33
2019-03-20T02:12:05.723Z,1.32
2019-03-20T02:12:36.911Z,1.31
2019-03-20T02:13:08.080Z,1.31
2019-03-20T02:13:39.275Z,1.30
2019-03-20T02:14:10.456Z,1.28
2019-03-20T02:14:41.637Z,1.27
2019-03-20T02:15:15.016Z,1.28
2019-03-20T02:15:46.199Z,1.28
2019-03-20T02:16:17.399Z,1.28
2019-03-20T02:16:48.686Z,1.27
2019-03-20T02:17:20.078Z,1.27
2019-03-20T02:17:51.275Z,1.27
2019-03-20T02:18:22.444Z,1.26
2019-03-20T02:18:53.663Z,1.26
2019-03-20T02:19:24.876Z,1.26
2019-03-20T02:19:56.051Z,1.27
2019-03-20T02:20:27.216Z,1.27
2019-03-20T02:20:58.584Z,1.28
2019-03-20T02:21:29.768Z,1.28
2019-03-20T02:22:00.920Z,1.29
2019-03-20T02:22:32.141Z,1.29
2019-03-20T02:23:03.504Z,1.29
2019-03-20T02:23:35.705Z,1.28
2019-03-20T02:24:07.865Z,1.29
2019-03-20T02:24:39.043Z,1.29
2019-03-20T02:25:12.526Z,1.29
2019-03-20T02:25:43.757Z,1.28
2019-03-20T02:26:15.011Z,1.29
2019-03-20T02:26:46.221Z,1.29
2019-03-20T02:27:17.475Z,1.28
2019-03-20T02:27:48.723Z,1.28
2019-03-20T02:28:19.877Z,1.28
2019-03-20T02:28:51.081Z,1.28
2019-03-20T02:29:22.223Z,1.28
2019-03-20T02:29:53.435Z,1.27
2019-03-20T02:30:24.870Z,1.27
2019-03-20T02:30:56.068Z,1.27
2019-03-20T02:31:27.249Z,1.28
2019-03-20T02:31:58.545Z,1.26
2019-03-20T02:32:29.733Z,1.28
2019-03-20T02:33:00.907Z,1.26
2019-03-20T02:33:32.110Z,1.26
2019-03-20T02:34:03.290Z,1.25
2019-03-20T02:34:34.463Z,1.26
2019-03-20T02:35:05.644Z,1.27
2019-03-20T02:35:50.825Z,1.27
2019-03-20T02:36:09.919Z,1.28
2019-03-20T02:36:41.108Z,1.28
2019-03-20T02:37:13.307Z,1.29
2019-03-20T02:37:44.568Z,1.27
2019-03-20T02:38:15.712Z,1.27
2019-03-20T02:38:47.023Z,1.27
2019-03-20T02:39:18.290Z,1.27
2019-03-20T02:39:49.501Z,1.26
2019-03-20T02:40:20.657Z,1.24
2019-03-20T02:40:51.882Z,1.24
2019-03-20T02:41:23.129Z,1.23
2019-03-20T02:41:54.325Z,1.24
2019-03-20T02:42:25.475Z,1.24
2019-03-20T02:42:56.732Z,1.25
2019-03-20T02:43:27.904Z,1.25
2019-03-20T02:43:59.100Z,1.25
2019-03-20T02:44:30.253Z,1.24
2019-03-20T02:45:01.485Z,1.24
2019-03-20T02:45:32.739Z,1.23
2019-03-20T02:46:03.985Z,1.23
2019-03-20T02:46:35.177Z,1.22
2019-03-20T02:47:06.387Z,1.23
2019-03-20T02:47:37.547Z,1.23
2019-03-20T02:48:08.772Z,1.23
2019-03-20T02:48:40.055Z,1.23
2019-03-20T02:49:11.270Z,1.24
2019-03-20T02:49:42.432Z,1.24
2019-03-20T02:50:13.730Z,1.25
2019-03-20T02:50:44.879Z,1.25
2019-03-20T02:51:16.087Z,1.25
2019-03-20T02:51:47.257Z,1.25
2019-03-20T02:52:18.476Z,1.24
2019-03-20T02:52:49.747Z,1.23
2019-03-20T02:53:20.962Z,1.22
2019-03-20T02:53:52.202Z,1.22
2019-03-20T02:54:23.414Z,1.22
2019-03-20T02:54:54.716Z,1.22
2019-03-20T02:55:25.895Z,1.22
2019-03-20T02:55:57.080Z,1.21
2019-03-20T02:56:28.261Z,1.21
2019-03-20T02:57:00.454Z,1.21
2019-03-20T02:57:31.646Z,1.21
2019-03-20T02:58:02.802Z,1.21
2019-03-20T02:58:34.015Z,1.22
2019-03-20T02:59:05.169Z,1.21
2019-03-20T02:59:36.453Z,1.22
2019-03-20T03:00:20.057Z,1.21
2019-03-20T03:00:51.255Z,1.20
2019-03-20T03:01:22.463Z,1.18
2019-03-20T03:01:53.701Z,1.20
2019-03-20T03:02:24.885Z,1.20
2019-03-20T03:02:56.108Z,1.19
2019-03-20T03:03:27.258Z,1.18
2019-03-20T03:03:58.475Z,1.19
2019-03-20T03:04:29.616Z,1.21
2019-03-20T03:05:00.829Z,1.22
2019-03-20T03:05:32.083Z,1.22
2019-03-20T03:06:07.014Z,1.22
2019-03-20T03:06:36.349Z,1.22
2019-03-20T03:07:07.573Z,1.22
2019-03-20T03:07:38.837Z,1.23
2019-03-20T03:08:10.020Z,1.22
2019-03-20T03:08:41.192Z,1.20
2019-03-20T03:09:12.380Z,1.19
2019-03-20T03:09:43.537Z,1.19
2019-03-20T03:10:15.835Z,1.20
2019-03-20T03:10:48.091Z,1.20
2019-03-20T03:11:19.323Z,1.22
2019-03-20T03:11:50.475Z,1.24
2019-03-20T03:12:21.694Z,1.24
2019-03-20T03:12:53.869Z,1.22
2019-03-20T03:13:25.453Z,1.24
2019-03-20T03:13:57.863Z,1.26
2019-03-20T03:14:29.070Z,1.24
2019-03-20T03:15:00.522Z,1.25
2019-03-20T03:15:31.812Z,1.24
2019-03-20T03:16:02.973Z,1.26
2019-03-20T03:16:34.183Z,1.25
2019-03-20T03:17:05.341Z,1.26
2019-03-20T03:17:36.568Z,1.29
2019-03-20T03:18:07.734Z,1.29
2019-03-20T03:18:38.951Z,1.30
2019-03-20T03:19:10.227Z,1.31
2019-03-20T03:19:41.459Z,1.32
2019-03-20T03:20:16.105Z,1.33
2019-03-20T03:20:47.411Z,1.35
2019-03-20T03:21:18.744Z,1.35
2019-03-20T03:21:49.967Z,1.36
2019-03-20T03:22:21.214Z,1.37
2019-03-20T03:22:52.600Z,1.37
2019-03-20T03:23:23.872Z,1.37
2019-03-20T03:23:55.042Z,1.37
2019-03-20T03:24:26.347Z,1.38
2019-03-20T03:24:57.853Z,1.37
2019-03-20T03:25:29.046Z,1.36
2019-03-20T03:26:00.216Z,1.34
2019-03-20T03:26:31.365Z,1.34
2019-03-20T03:27:02.539Z,1.34
2019-03-20T03:27:33.708Z,1.35
2019-03-20T03:28:04.894Z,1.34
2019-03-20T03:28:36.069Z,1.34
2019-03-20T03:29:07.284Z,1.37
2019-03-20T03:29:38.451Z,1.38
2019-03-20T03:30:17.753Z,1.38
2019-03-20T03:30:49.034Z,1.40
2019-03-20T03:31:20.243Z,1.40
2019-03-20T03:31:51.502Z,1.42
2019-03-20T03:32:22.836Z,1.42
2019-03-20T03:32:54.089Z,1.41
2019-03-20T03:33:25.479Z,1.44
2019-03-20T03:33:56.681Z,1.45
2019-03-20T03:34:27.937Z,1.44
2019-03-20T03:34:59.144Z,1.46
2019-03-20T03:35:30.411Z,1.48
2019-03-20T03:36:01.591Z,1.48
2019-03-20T03:36:33.780Z,1.53
2019-03-20T03:37:04.965Z,1.53
2019-03-20T03:37:36.153Z,1.55
2019-03-20T03:38:07.361Z,1.54
2019-03-20T03:38:39.671Z,1.51
2019-03-20T03:39:10.836Z,1.51
2019-03-20T03:39:42.013Z,1.49
2019-03-20T03:40:17.510Z,1.45
2019-03-20T03:40:48.824Z,1.44
2019-03-20T03:41:20.005Z,1.45
2019-03-20T03:41:51.189Z,1.43
2019-03-20T03:42:22.372Z,1.41
2019-03-20T03:42:53.551Z,1.42
2019-03-20T03:43:24.776Z,1.42
2019-03-20T03:43:56.055Z,1.42
2019-03-20T03:44:27.251Z,1.41
2019-03-20T03:44:58.510Z,1.39
2019-03-20T03:45:29.685Z,1.37
2019-03-20T03:46:00.911Z,1.33
2019-03-20T03:46:32.078Z,1.33
2019-03-20T03:47:03.303Z,1.31
2019-03-20T03:47:34.481Z,1.31
2019-03-20T03:48:05.671Z,1.31
2019-03-20T03:48:36.892Z,1.29
2019-03-20T03:49:08.107Z,1.29
2019-03-20T03:49:39.303Z,1.27
2019-03-20T03:50:10.790Z,1.25
2019-03-20T03:50:42.058Z,1.27
2019-03-20T03:51:13.246Z,1.26
2019-03-20T03:51:44.422Z,1.25
2019-03-20T03:52:15.616Z,1.24
2019-03-20T03:52:46.890Z,1.24
2019-03-20T03:53:18.070Z,1.26
2019-03-20T03:53:49.248Z,1.23
2019-03-20T03:54:20.481Z,1.23
2019-03-20T03:54:51.711Z,1.21
2019-03-20T03:55:22.864Z,1.21
2019-03-20T03:55:54.040Z,1.17
2019-03-20T03:56:25.430Z,1.18
2019-03-20T03:56:56.587Z,1.18
2019-03-20T03:57:27.756Z,1.14
2019-03-20T03:57:59.118Z,1.13
2019-03-20T03:58:32.866Z,1.14
2019-03-20T03:59:03.723Z,1.15
2019-03-20T03:59:34.896Z,1.13
2019-03-20T04:00:17.631Z,1.11
2019-03-20T04:00:48.855Z,1.11
2019-03-20T04:01:20.063Z,1.09
2019-03-20T04:01:51.227Z,1.08
2019-03-20T04:02:22.527Z,1.07
2019-03-20T04:02:53.718Z,1.08
2019-03-20T04:03:24.971Z,1.10
2019-03-20T04:03:56.147Z,1.10
2019-03-20T04:04:27.706Z,1.08
2019-03-20T04:04:58.891Z,1.07
2019-03-20T04:05:30.091Z,1.06
2019-03-20T04:06:01.279Z,1.08
2019-03-20T04:06:35.968Z,1.05
2019-03-20T04:07:05.551Z,1.05
2019-03-20T04:07:36.740Z,1.05
2019-03-20T04:08:07.929Z,1.04
2019-03-20T04:08:39.131Z,1.04
2019-03-20T04:09:10.321Z,1.02
2019-03-20T04:09:41.521Z,1.03
2019-03-20T04:10:14.306Z,1.03
2019-03-20T04:10:45.490Z,1.03
2019-03-20T04:11:16.755Z,1.01
2019-03-20T04:11:47.966Z,1.01
2019-03-20T04:12:19.712Z,1.03
2019-03-20T04:12:50.985Z,1.03
2019-03-20T04:13:22.148Z,1.02
2019-03-20T04:13:53.338Z,0.99
2019-03-20T04:14:24.693Z,1.03
2019-03-20T04:14:55.889Z,1.04
2019-03-20T04:15:27.055Z,1.03
2019-03-20T04:15:58.429Z,1.03
2019-03-20T04:16:29.615Z,1.04
2019-03-20T04:17:00.796Z,1.06
2019-03-20T04:17:31.978Z,1.06
2019-03-20T04:18:03.141Z,1.09
2019-03-20T04:18:34.324Z,1.11
2019-03-20T04:19:05.538Z,1.11
2019-03-20T04:19:36.782Z,1.10
2019-03-20T04:20:18.641Z,1.09
2019-03-20T04:20:49.805Z,1.09
2019-03-20T04:21:20.999Z,1.12
2019-03-20T04:21:52.200Z,1.13
2019-03-20T04:22:23.489Z,1.14
2019-03-20T04:22:54.651Z,1.13
2019-03-20T04:23:25.865Z,1.12
2019-03-20T04:23:57.015Z,1.12
2019-03-20T04:24:28.423Z,1.14
2019-03-20T04:24:59.693Z,1.14
2019-03-20T04:25:30.902Z,1.14
2019-03-20T04:26:02.122Z,1.16
2019-03-20T04:26:33.337Z,1.14
2019-03-20T04:27:04.570Z,1.13
2019-03-20T04:27:35.779Z,1.13
2019-03-20T04:28:07.030Z,1.12
2019-03-20T04:28:38.274Z,1.13
2019-03-20T04:29:09.503Z,1.15
2019-03-20T04:29:40.748Z,1.19
2019-03-20T04:30:17.459Z,1.21
2019-03-20T04:30:48.615Z,1.24
2019-03-20T04:31:19.825Z,1.24
2019-03-20T04:31:50.970Z,1.26
2019-03-20T04:32:22.184Z,1.29
2019-03-20T04:32:53.383Z,1.29
2019-03-20T04:33:24.695Z,1.30
2019-03-20T04:33:57.676Z,1.29
2019-03-20T04:34:28.942Z,1.30
2019-03-20T04:35:00.212Z,1.30
2019-03-20T04:35:31.699Z,1.31
2019-03-20T04:36:02.881Z,1.31
2019-03-20T04:36:34.087Z,1.32
2019-03-20T04:37:05.248Z,1.31
2019-03-20T04:37:37.446Z,1.27
2019-03-20T04:38:08.603Z,1.26
2019-03-20T04:38:39.822Z,1.27
2019-03-20T04:39:10.974Z,1.27
2019-03-20T04:39:42.215Z,1.25
2019-03-20T04:40:15.988Z,1.27
2019-03-20T04:40:47.227Z,1.26
2019-03-20T04:41:18.463Z,1.27
2019-03-20T04:41:49.710Z,1.25
2019-03-20T04:42:20.845Z,1.24
2019-03-20T04:42:52.067Z,1.23
2019-03-20T04:43:23.250Z,1.22
2019-03-20T04:43:54.766Z,1.20
2019-03-20T04:44:25.931Z,1.21
2019-03-20T04:44:57.131Z,1.20
2019-03-20T04:45:28.319Z,1.20
2019-03-20T04:45:59.541Z,1.19
2019-03-20T04:46:30.807Z,1.17
2019-03-20T04:47:02.029Z,1.17
2019-03-20T04:47:33.261Z,1.16
2019-03-20T04:48:04.521Z,1.13
2019-03-20T04:48:35.759Z,1.11
2019-03-20T04:49:07.001Z,1.13
2019-03-20T04:49:38.272Z,1.13
2019-03-20T04:50:12.393Z,1.15
2019-03-20T04:50:43.595Z,1.15
2019-03-20T04:51:14.740Z,1.17
2019-03-20T04:51:45.962Z,1.16
2019-03-20T04:52:17.104Z,1.15
2019-03-20T04:52:48.328Z,1.17
2019-03-20T04:53:19.469Z,1.16
2019-03-20T04:53:51.796Z,1.15
2019-03-20T04:54:22.994Z,1.13
2019-03-20T04:54:54.191Z,1.14
2019-03-20T04:55:25.392Z,1.16
2019-03-20T04:55:56.599Z,1.16
2019-03-20T04:56:27.820Z,1.17
2019-03-20T04:56:59.127Z,1.16
2019-03-20T04:57:30.370Z,1.14
2019-03-20T04:58:01.613Z,1.17
2019-03-20T04:58:32.853Z,1.17
2019-03-20T04:59:04.063Z,1.18
2019-03-20T04:59:35.294Z,1.19
2019-03-20T05:00:15.791Z,1.19
2019-03-20T05:00:46.999Z,1.20
2019-03-20T05:01:18.161Z,1.20
2019-03-20T05:01:49.360Z,1.21
2019-03-20T05:02:20.516Z,1.22
2019-03-20T05:02:51.723Z,1.22
2019-03-20T05:03:22.889Z,1.20
2019-03-20T05:03:54.100Z,1.16
2019-03-20T05:04:25.251Z,1.12
2019-03-20T05:04:57.614Z,1.13
2019-03-20T05:05:28.784Z,1.15
2019-03-20T05:06:00.003Z,1.15
2019-03-20T05:06:31.162Z,1.15
2019-03-20T05:07:02.369Z,1.14
2019-03-20T05:07:33.518Z,1.14
2019-03-20T05:08:05.730Z,1.13
2019-03-20T05:08:36.896Z,1.15
2019-03-20T05:09:08.117Z,1.17
2019-03-20T05:09:39.270Z,1.17
2019-03-20T05:10:17.909Z,1.17
2019-03-20T05:10:49.083Z,1.15
2019-03-20T05:11:20.306Z,1.13
2019-03-20T05:11:51.551Z,1.12
2019-03-20T05:12:22.788Z,1.10
2019-03-20T05:12:54.023Z,1.08
2019-03-20T05:13:25.545Z,1.06
2019-03-20T05:13:56.782Z,1.06
2019-03-20T05:14:28.234Z,1.06
2019-03-20T05:14:59.453Z,1.04
2019-03-20T05:15:30.679Z,1.07
2019-03-20T05:16:01.896Z,1.07
2019-03-20T05:16:33.038Z,1.06
2019-03-20T05:17:04.271Z,1.06
2019-03-20T05:17:35.403Z,1.06
2019-03-20T05:18:06.623Z,1.07
2019-03-20T05:18:37.788Z,1.08
2019-03-20T05:19:08.998Z,1.09
2019-03-20T05:19:40.151Z,1.08
2019-03-20T05:20:21.232Z,1.08
2019-03-20T05:20:52.445Z,1.08
2019-03-20T05:21:23.760Z,1.08
2019-03-20T05:21:55.232Z,1.08
2019-03-20T05:22:26.470Z,1.06
2019-03-20T05:22:57.788Z,1.07
2019-03-20T05:23:29.086Z,1.07
2019-03-20T05:24:00.347Z,1.09
2019-03-20T05:24:32.580Z,1.09
2019-03-20T05:25:05.010Z,1.10
2019-03-20T05:25:36.188Z,1.10
2019-03-20T05:26:07.402Z,1.13
2019-03-20T05:26:38.639Z,1.13
2019-03-20T05:27:09.868Z,1.12
2019-03-20T05:27:41.119Z,1.10
2019-03-20T05:28:12.401Z,1.12
2019-03-20T05:28:43.644Z,1.13
2019-03-20T05:29:14.866Z,1.13
2019-03-20T05:29:46.123Z,1.12
2019-03-20T05:30:17.371Z,1.12
2019-03-20T05:30:48.612Z,1.13
2019-03-20T05:31:19.807Z,1.12
2019-03-20T05:31:50.971Z,1.12
2019-03-20T05:32:22.185Z,1.12
2019-03-20T05:32:53.357Z,1.12
2019-03-20T05:33:24.840Z,1.13
2019-03-20T05:33:56.001Z,1.13
2019-03-20T05:34:27.227Z,1.13
2019-03-20T05:34:58.375Z,1.13
2019-03-20T05:35:29.597Z,1.13
2019-03-20T05:36:00.786Z,1.13
2019-03-20T05:36:31.998Z,1.15
2019-03-20T05:37:10.302Z,1.14
2019-03-20T05:37:36.258Z,1.14
2019-03-20T05:38:07.432Z,1.14
2019-03-20T05:38:38.655Z,1.15
2019-03-20T05:39:09.810Z,1.15
2019-03-20T05:39:41.027Z,1.15
2019-03-20T05:40:16.196Z,1.14
2019-03-20T05:40:47.488Z,1.13
2019-03-20T05:41:18.685Z,1.13
2019-03-20T05:41:49.908Z,1.12
2019-03-20T05:42:21.124Z,1.12
2019-03-20T05:42:52.400Z,1.09
2019-03-20T05:43:23.616Z,1.09
2019-03-20T05:43:55.347Z,1.09
2019-03-20T05:44:26.571Z,1.07
2019-03-20T05:44:57.800Z,1.06
2019-03-20T05:45:29.043Z,1.05
2019-03-20T05:46:00.503Z,1.04
2019-03-20T05:46:32.822Z,1.04
2019-03-20T05:47:03.973Z,1.04
2019-03-20T05:47:35.169Z,1.05
2019-03-20T05:48:06.334Z,1.05
2019-03-20T05:48:37.541Z,1.05
2019-03-20T05:49:08.701Z,1.05
2019-03-20T05:49:39.928Z,1.04
2019-03-20T05:50:15.301Z,1.03
2019-03-20T05:50:46.491Z,1.03
2019-03-20T05:51:17.663Z,1.03
2019-03-20T05:51:48.893Z,1.04
2019-03-20T05:52:20.127Z,1.04
2019-03-20T05:52:51.361Z,1.05
2019-03-20T05:53:22.612Z,1.04
2019-03-20T05:53:53.870Z,1.06
2019-03-20T05:54:25.597Z,1.06
2019-03-20T05:54:56.836Z,1.08
2019-03-20T05:55:28.361Z,1.09
2019-03-20T05:55:59.628Z,1.11
2019-03-20T05:56:30.967Z,1.11
2019-03-20T05:57:02.200Z,1.12
2019-03-20T05:57:33.459Z,1.14
2019-03-20T05:58:04.711Z,1.15
2019-03-20T05:58:35.930Z,1.15
2019-03-20T05:59:07.149Z,1.16
2019-03-20T05:59:38.362Z,1.16
2019-03-20T06:00:14.946Z,1.16
2019-03-20T06:00:47.191Z,1.17
2019-03-20T06:01:18.392Z,1.20
2019-03-20T06:01:49.584Z,1.21
2019-03-20T06:02:20.827Z,1.23
2019-03-20T06:02:52.068Z,1.24
2019-03-20T06:03:23.385Z,1.25
2019-03-20T06:03:54.939Z,1.26
2019-03-20T06:04:26.180Z,1.24
2019-03-20T06:04:57.553Z,1.28
2019-03-20T06:05:28.795Z,1.28
2019-03-20T06:06:00.035Z,1.29
2019-03-20T06:06:31.246Z,1.29
2019-03-20T06:07:02.406Z,1.31
2019-03-20T06:07:33.612Z,1.33
2019-03-20T06:08:04.808Z,1.33
2019-03-20T06:08:36.010Z,1.34
2019-03-20T06:09:07.156Z,1.34
2019-03-20T06:09:38.356Z,1.38
2019-03-20T06:10:15.996Z,1.39
2019-03-20T06:10:47.243Z,1.41
2019-03-20T06:11:18.462Z,1.43
2019-03-20T06:11:49.663Z,1.45
2019-03-20T06:12:20.815Z,1.47
2019-03-20T06:12:52.033Z,1.48
2019-03-20T06:13:23.197Z,1.51
2019-03-20T06:13:55.404Z,1.50
2019-03-20T06:14:26.575Z,1.41
2019-03-20T06:14:57.799Z,1.52
2019-03-20T06:15:28.972Z,1.55
2019-03-20T06:16:00.281Z,1.55
2019-03-20T06:16:31.459Z,1.56
2019-03-20T06:17:03.668Z,1.57
2019-03-20T06:17:34.830Z,1.59
2019-03-20T06:18:06.035Z,1.59
2019-03-20T06:18:37.179Z,1.61
2019-03-20T06:19:08.391Z,1.64
2019-03-20T06:19:39.544Z,1.66
2019-03-20T06:20:12.372Z,1.67
2019-03-20T06:20:44.763Z,1.68
2019-03-20T06:21:15.978Z,1.70
2019-03-20T06:21:47.202Z,1.70
2019-03-20T06:22:19.807Z,1.72
2019-03-20T06:22:51.038Z,1.73
2019-03-20T06:23:22.244Z,1.75
2019-03-20T06:23:53.499Z,1.76
2019-03-20T06:24:25.016Z,1.78
2019-03-20T06:24:56.252Z,1.80
2019-03-20T06:25:27.694Z,1.83
2019-03-20T06:25:58.906Z,1.83
2019-03-20T06:26:31.097Z,1.85
2019-03-20T06:27:02.314Z,1.87
2019-03-20T06:27:34.457Z,1.89
2019-03-20T06:28:05.700Z,1.92
2019-03-20T06:28:36.848Z,1.92
2019-03-20T06:29:08.076Z,1.93
2019-03-20T06:29:39.230Z,1.95
2019-03-20T06:30:19.495Z,1.97
2019-03-20T06:30:50.641Z,1.99
2019-03-20T06:31:21.846Z,2.02
2019-03-20T06:31:53.039Z,2.03
2019-03-20T06:32:24.219Z,2.05
2019-03-20T06:32:55.461Z,2.06
2019-03-20T06:33:26.661Z,2.09
2019-03-20T06:33:58.067Z,2.10
2019-03-20T06:34:29.275Z,2.12
2019-03-20T06:35:00.450Z,2.14
2019-03-20T06:35:31.619Z,2.17
2019-03-20T06:36:02.821Z,2.16
2019-03-20T06:36:33.997Z,2.20
2019-03-20T06:37:05.199Z,2.21
2019-03-20T06:37:36.380Z,2.24
2019-03-20T06:38:07.566Z,2.24
2019-03-20T06:38:38.741Z,2.25
2019-03-20T06:39:09.914Z,2.26
2019-03-20T06:39:41.109Z,2.28
2019-03-20T06:40:16.301Z,2.30
2019-03-20T06:40:47.477Z,2.32
2019-03-20T06:41:18.656Z,2.34
2019-03-20T06:41:49.876Z,2.35
2019-03-20T06:42:21.047Z,2.36
2019-03-20T06:42:52.246Z,2.37
2019-03-20T06:43:23.418Z,2.38
2019-03-20T06:43:54.837Z,2.39
2019-03-20T06:44:26.023Z,2.40
2019-03-20T06:44:57.213Z,2.41
2019-03-20T06:45:28.430Z,2.41
2019-03-20T06:45:59.684Z,2.45
2019-03-20T06:46:30.896Z,2.46
2019-03-20T06:47:02.129Z,2.45
2019-03-20T06:47:33.299Z,2.49
2019-03-20T06:48:04.511Z,2.53
2019-03-20T06:48:35.661Z,2.53
2019-03-20T06:49:07.981Z,2.55
2019-03-20T06:49:39.327Z,2.56
2019-03-20T06:50:17.920Z,2.58
2019-03-20T06:50:49.061Z,2.58
2019-03-20T06:51:20.256Z,2.49
2019-03-20T06:51:51.402Z,2.62
2019-03-20T06:52:22.597Z,2.63
2019-03-20T06:52:53.769Z,2.66
2019-03-20T06:53:25.959Z,2.68
2019-03-20T06:53:57.134Z,2.69
2019-03-20T06:54:28.367Z,2.70
2019-03-20T06:55:01.155Z,2.73
2019-03-20T06:55:32.711Z,2.74
2019-03-20T06:56:03.889Z,2.76
2019-03-20T06:56:35.056Z,2.75
2019-03-20T06:57:06.248Z,2.76
2019-03-20T06:57:37.423Z,2.76
2019-03-20T06:58:08.607Z,2.78
2019-03-20T06:58:39.795Z,2.79
2019-03-20T06:59:31.809Z,2.81
2019-03-20T07:00:26.339Z,2.81
2019-03-20T07:01:12.253Z,2.82